sensor_id;sensor_type;location;lat;lon;timestamp;temperature;humidity
39017;DHT22;24784;45.582;5.276;2022-09-09T00:01:46;17.50;99.90
39017;DHT22;24784;45.582;5.276;2022-09-09T00:04:36;17.40;99.90
39017;DHT22;24784;45.582;5.276;2022-09-09T00:15:05;17.30;99.90
39017;DHT22;24784;45.582;5.276;2022-09-09T00:17:53;17.00;99.90
39017;DHT22;24784;45.582;5.276;2022-09-09T00:25:34;16.90;99.90
39017;DHT22;24784;45.582;5.276;2022-09-09T00:28:04;17.10;99.90
39017;DHT22;24784;45.582;5.276;2022-09-09T00:30:35;17.10;99.90
39017;DHT22;24784;45.582;5.276;2022-09-09T00:33:11;17.10;99.90
39017;DHT22;24784;45.582;5.276;2022-09-09T00:35:49;17.10;99.90
39017;DHT22;24784;45.582;5.276;2022-09-09T00:38:35;17.10;99.90
39017;DHT22;24784;45.582;5.276;2022-09-09T00:43:38;17.00;99.90
39017;DHT22;24784;45.582;5.276;2022-09-09T00:49:08;16.90;99.90
39017;DHT22;24784;45.582;5.276;2022-09-09T00:57:23;17.00;99.90
39017;DHT22;24784;45.582;5.276;2022-09-09T00:59:55;17.20;99.90
39017;DHT22;24784;45.582;5.276;2022-09-09T01:07:51;16.90;99.90
39017;DHT22;24784;45.582;5.276;2022-09-09T01:10:41;16.90;99.90
39017;DHT22;24784;45.582;5.276;2022-09-09T01:13:24;16.90;99.90
39017;DHT22;24784;45.582;5.276;2022-09-09T01:15:52;16.80;99.90
39017;DHT22;24784;45.582;5.276;2022-09-09T01:18:23;16.70;99.90
39017;DHT22;24784;45.582;5.276;2022-09-09T01:23:38;16.80;99.90
39017;DHT22;24784;45.582;5.276;2022-09-09T01:28:55;16.60;99.90
39017;DHT22;24784;45.582;5.276;2022-09-09T01:31:35;16.50;99.90
39017;DHT22;24784;45.582;5.276;2022-09-09T01:34:02;16.40;99.90
39017;DHT22;24784;45.582;5.276;2022-09-09T01:36:35;16.50;99.90
39017;DHT22;24784;45.582;5.276;2022-09-09T01:39:03;16.30;99.90
39017;DHT22;24784;45.582;5.276;2022-09-09T01:41:29;16.20;99.90
39017;DHT22;24784;45.582;5.276;2022-09-09T01:43:55;16.30;99.90
39017;DHT22;24784;45.582;5.276;2022-09-09T01:46:22;16.50;99.90
39017;DHT22;24784;45.582;5.276;2022-09-09T01:48:52;16.40;99.90
39017;DHT22;24784;45.582;5.276;2022-09-09T01:51:18;16.20;99.90
39017;DHT22;24784;45.582;5.276;2022-09-09T01:53:45;16.10;99.90
39017;DHT22;24784;45.582;5.276;2022-09-09T02:04:43;16.00;99.90
39017;DHT22;24784;45.582;5.276;2022-09-09T02:07:42;16.10;99.90
39017;DHT22;24784;45.582;5.276;2022-09-09T02:10:19;16.20;99.90
39017;DHT22;24784;45.582;5.276;2022-09-09T02:12:53;16.30;99.90
39017;DHT22;24784;45.582;5.276;2022-09-09T02:15:34;16.30;99.90
39017;DHT22;24784;45.582;5.276;2022-09-09T02:18:04;16.40;99.90
39017;DHT22;24784;45.582;5.276;2022-09-09T02:20:34;16.20;99.90
39017;DHT22;24784;45.582;5.276;2022-09-09T02:23:02;16.20;99.90
39017;DHT22;24784;45.582;5.276;2022-09-09T02:25:29;16.10;99.90
39017;DHT22;24784;45.582;5.276;2022-09-09T02:27:56;15.80;99.90
39017;DHT22;24784;45.582;5.276;2022-09-09T02:30:27;15.80;99.90
39017;DHT22;24784;45.582;5.276;2022-09-09T02:32:56;15.90;99.90
39017;DHT22;24784;45.582;5.276;2022-09-09T02:35:24;15.90;99.90
39017;DHT22;24784;45.582;5.276;2022-09-09T02:37:53;15.80;99.90
39017;DHT22;24784;45.582;5.276;2022-09-09T02:40:20;15.70;99.90
39017;DHT22;24784;45.582;5.276;2022-09-09T02:42:48;15.70;99.90
39017;DHT22;24784;45.582;5.276;2022-09-09T02:45:22;15.70;99.90
39017;DHT22;24784;45.582;5.276;2022-09-09T02:51:08;15.40;99.90
39017;DHT22;24784;45.582;5.276;2022-09-09T02:53:47;15.70;99.90
39017;DHT22;24784;45.582;5.276;2022-09-09T02:56:18;15.80;99.90
39017;DHT22;24784;45.582;5.276;2022-09-09T02:58:45;15.80;99.90
39017;DHT22;24784;45.582;5.276;2022-09-09T03:01:12;15.80;99.90
39017;DHT22;24784;45.582;5.276;2022-09-09T03:03:38;15.70;99.90
39017;DHT22;24784;45.582;5.276;2022-09-09T03:06:04;15.50;99.90
39017;DHT22;24784;45.582;5.276;2022-09-09T03:08:31;15.60;99.90
39017;DHT22;24784;45.582;5.276;2022-09-09T03:10:59;15.70;99.90
39017;DHT22;24784;45.582;5.276;2022-09-09T03:13:26;15.60;99.90
39017;DHT22;24784;45.582;5.276;2022-09-09T03:15:52;15.40;99.90
39017;DHT22;24784;45.582;5.276;2022-09-09T03:18:18;15.60;99.90
39017;DHT22;24784;45.582;5.276;2022-09-09T03:20:45;15.60;99.90
39017;DHT22;24784;45.582;5.276;2022-09-09T03:23:12;15.60;99.90
39017;DHT22;24784;45.582;5.276;2022-09-09T03:25:39;15.60;99.90
39017;DHT22;24784;45.582;5.276;2022-09-09T03:28:04;15.40;99.90
39017;DHT22;24784;45.582;5.276;2022-09-09T03:30:30;15.60;99.90
39017;DHT22;24784;45.582;5.276;2022-09-09T03:32:56;15.50;99.90
39017;DHT22;24784;45.582;5.276;2022-09-09T03:35:22;15.50;99.90
39017;DHT22;24784;45.582;5.276;2022-09-09T03:37:48;15.50;99.90
39017;DHT22;24784;45.582;5.276;2022-09-09T03:40:15;15.50;99.90
39017;DHT22;24784;45.582;5.276;2022-09-09T03:42:41;15.20;99.90
39017;DHT22;24784;45.582;5.276;2022-09-09T03:45:08;15.20;99.90
39017;DHT22;24784;45.582;5.276;2022-09-09T03:47:35;15.30;99.90
39017;DHT22;24784;45.582;5.276;2022-09-09T03:50:01;15.30;99.90
39017;DHT22;24784;45.582;5.276;2022-09-09T03:52:26;15.40;99.90
39017;DHT22;24784;45.582;5.276;2022-09-09T03:54:55;15.30;99.90
39017;DHT22;24784;45.582;5.276;2022-09-09T03:57:22;15.50;99.90
39017;DHT22;24784;45.582;5.276;2022-09-09T03:59:48;15.50;99.90
39017;DHT22;24784;45.582;5.276;2022-09-09T04:02:13;15.40;99.90
39017;DHT22;24784;45.582;5.276;2022-09-09T04:04:39;15.30;99.90
39017;DHT22;24784;45.582;5.276;2022-09-09T04:07:05;15.20;99.90
39017;DHT22;24784;45.582;5.276;2022-09-09T04:09:32;15.30;99.90
39017;DHT22;24784;45.582;5.276;2022-09-09T04:11:58;15.20;99.90
39017;DHT22;24784;45.582;5.276;2022-09-09T04:14:24;15.30;99.90
39017;DHT22;24784;45.582;5.276;2022-09-09T04:16:53;15.20;99.90
39017;DHT22;24784;45.582;5.276;2022-09-09T04:19:18;15.20;99.90
39017;DHT22;24784;45.582;5.276;2022-09-09T04:21:44;15.00;99.90
39017;DHT22;24784;45.582;5.276;2022-09-09T04:24:10;15.10;99.90
39017;DHT22;24784;45.582;5.276;2022-09-09T04:26:36;15.10;99.90
39017;DHT22;24784;45.582;5.276;2022-09-09T04:29:03;14.90;99.90
39017;DHT22;24784;45.582;5.276;2022-09-09T04:31:29;15.10;99.90
39017;DHT22;24784;45.582;5.276;2022-09-09T04:33:55;15.00;99.90
39017;DHT22;24784;45.582;5.276;2022-09-09T04:36:21;15.10;99.90
39017;DHT22;24784;45.582;5.276;2022-09-09T04:38:47;15.00;99.90
39017;DHT22;24784;45.582;5.276;2022-09-09T04:41:14;15.10;99.90
39017;DHT22;24784;45.582;5.276;2022-09-09T04:43:40;15.00;99.90
39017;DHT22;24784;45.582;5.276;2022-09-09T04:46:06;15.10;99.90
39017;DHT22;24784;45.582;5.276;2022-09-09T04:48:32;15.10;99.90
39017;DHT22;24784;45.582;5.276;2022-09-09T04:51:03;15.10;99.90
39017;DHT22;24784;45.582;5.276;2022-09-09T04:53:30;15.00;99.90
39017;DHT22;24784;45.582;5.276;2022-09-09T04:56:08;14.70;99.90
39017;DHT22;24784;45.582;5.276;2022-09-09T04:58:36;14.90;99.90
39017;DHT22;24784;45.582;5.276;2022-09-09T05:01:10;15.10;99.90
39017;DHT22;24784;45.582;5.276;2022-09-09T05:03:37;14.90;99.90
39017;DHT22;24784;45.582;5.276;2022-09-09T05:06:14;15.00;99.90
39017;DHT22;24784;45.582;5.276;2022-09-09T05:08:42;14.80;99.90
39017;DHT22;24784;45.582;5.276;2022-09-09T05:11:21;14.90;99.90
39017;DHT22;24784;45.582;5.276;2022-09-09T05:13:51;15.00;99.90
39017;DHT22;24784;45.582;5.276;2022-09-09T05:16:18;15.00;99.90
39017;DHT22;24784;45.582;5.276;2022-09-09T05:18:44;15.00;99.90
39017;DHT22;24784;45.582;5.276;2022-09-09T05:21:12;15.10;99.90
39017;DHT22;24784;45.582;5.276;2022-09-09T05:23:38;15.10;99.90
39017;DHT22;24784;45.582;5.276;2022-09-09T05:26:05;15.00;99.90
39017;DHT22;24784;45.582;5.276;2022-09-09T05:28:34;14.90;99.90
39017;DHT22;24784;45.582;5.276;2022-09-09T05:31:02;14.90;99.90
39017;DHT22;24784;45.582;5.276;2022-09-09T05:33:34;14.90;99.90
39017;DHT22;24784;45.582;5.276;2022-09-09T05:36:03;14.90;99.90
39017;DHT22;24784;45.582;5.276;2022-09-09T05:38:30;14.90;99.90
39017;DHT22;24784;45.582;5.276;2022-09-09T05:40:56;15.10;99.90
39017;DHT22;24784;45.582;5.276;2022-09-09T05:43:22;14.80;99.90
39017;DHT22;24784;45.582;5.276;2022-09-09T05:45:59;14.90;99.90
39017;DHT22;24784;45.582;5.276;2022-09-09T05:48:28;14.90;99.90
39017;DHT22;24784;45.582;5.276;2022-09-09T05:50:55;15.00;99.90
39017;DHT22;24784;45.582;5.276;2022-09-09T05:53:20;14.90;99.90
39017;DHT22;24784;45.582;5.276;2022-09-09T05:55:46;15.10;99.90
39017;DHT22;24784;45.582;5.276;2022-09-09T05:58:13;15.00;99.90
39017;DHT22;24784;45.582;5.276;2022-09-09T06:00:40;15.10;99.90
39017;DHT22;24784;45.582;5.276;2022-09-09T06:03:05;15.30;99.90
39017;DHT22;24784;45.582;5.276;2022-09-09T06:05:31;15.10;99.90
39017;DHT22;24784;45.582;5.276;2022-09-09T06:07:57;15.10;99.90
39017;DHT22;24784;45.582;5.276;2022-09-09T06:10:22;15.40;99.90
39017;DHT22;24784;45.582;5.276;2022-09-09T06:12:48;15.20;99.90
39017;DHT22;24784;45.582;5.276;2022-09-09T06:15:14;15.40;99.90
39017;DHT22;24784;45.582;5.276;2022-09-09T06:17:40;15.30;99.90
39017;DHT22;24784;45.582;5.276;2022-09-09T06:20:07;15.40;99.90
39017;DHT22;24784;45.582;5.276;2022-09-09T06:22:34;15.30;99.90
39017;DHT22;24784;45.582;5.276;2022-09-09T06:25:00;15.40;99.90
39017;DHT22;24784;45.582;5.276;2022-09-09T06:27:27;15.20;99.90
39017;DHT22;24784;45.582;5.276;2022-09-09T06:29:54;15.30;99.90
39017;DHT22;24784;45.582;5.276;2022-09-09T06:32:19;15.20;99.90
39017;DHT22;24784;45.582;5.276;2022-09-09T06:34:45;15.20;99.90
39017;DHT22;24784;45.582;5.276;2022-09-09T06:37:12;15.20;99.90
39017;DHT22;24784;45.582;5.276;2022-09-09T06:39:38;15.20;99.90
39017;DHT22;24784;45.582;5.276;2022-09-09T06:42:04;15.10;99.90
39017;DHT22;24784;45.582;5.276;2022-09-09T06:44:29;15.20;99.90
39017;DHT22;24784;45.582;5.276;2022-09-09T06:46:57;15.10;99.90
39017;DHT22;24784;45.582;5.276;2022-09-09T06:49:22;15.10;99.90
39017;DHT22;24784;45.582;5.276;2022-09-09T06:51:48;15.00;99.90
39017;DHT22;24784;45.582;5.276;2022-09-09T06:54:14;15.10;99.90
39017;DHT22;24784;45.582;5.276;2022-09-09T06:56:41;15.10;99.90
39017;DHT22;24784;45.582;5.276;2022-09-09T06:59:09;15.10;99.90
39017;DHT22;24784;45.582;5.276;2022-09-09T07:01:40;15.20;99.90
39017;DHT22;24784;45.582;5.276;2022-09-09T07:04:06;15.10;99.90
39017;DHT22;24784;45.582;5.276;2022-09-09T07:06:35;15.20;99.90
39017;DHT22;24784;45.582;5.276;2022-09-09T07:09:07;15.10;99.90
39017;DHT22;24784;45.582;5.276;2022-09-09T07:11:37;15.10;99.90
39017;DHT22;24784;45.582;5.276;2022-09-09T07:14:03;15.20;99.90
39017;DHT22;24784;45.582;5.276;2022-09-09T07:16:29;15.20;99.90
39017;DHT22;24784;45.582;5.276;2022-09-09T07:18:56;15.30;99.90
39017;DHT22;24784;45.582;5.276;2022-09-09T07:21:24;15.00;99.90
39017;DHT22;24784;45.582;5.276;2022-09-09T07:23:52;15.00;99.90
39017;DHT22;24784;45.582;5.276;2022-09-09T07:26:21;15.00;99.90
39017;DHT22;24784;45.582;5.276;2022-09-09T07:28:47;15.10;99.90
39017;DHT22;24784;45.582;5.276;2022-09-09T07:31:19;15.20;99.90
39017;DHT22;24784;45.582;5.276;2022-09-09T07:33:46;15.20;99.90
39017;DHT22;24784;45.582;5.276;2022-09-09T07:36:27;15.10;99.90
39017;DHT22;24784;45.582;5.276;2022-09-09T07:38:59;15.00;99.90
39017;DHT22;24784;45.582;5.276;2022-09-09T07:41:26;15.00;99.90
39017;DHT22;24784;45.582;5.276;2022-09-09T07:43:53;15.10;99.90
39017;DHT22;24784;45.582;5.276;2022-09-09T07:46:24;15.00;99.90
39017;DHT22;24784;45.582;5.276;2022-09-09T07:48:55;15.00;99.90
39017;DHT22;24784;45.582;5.276;2022-09-09T07:51:27;15.30;99.90
39017;DHT22;24784;45.582;5.276;2022-09-09T07:53:59;15.30;99.90
39017;DHT22;24784;45.582;5.276;2022-09-09T07:56:26;15.50;99.90
39017;DHT22;24784;45.582;5.276;2022-09-09T07:58:53;15.50;99.90
39017;DHT22;24784;45.582;5.276;2022-09-09T08:01:27;15.50;99.90
39017;DHT22;24784;45.582;5.276;2022-09-09T08:03:56;15.80;99.90
39017;DHT22;24784;45.582;5.276;2022-09-09T08:06:25;16.00;99.90
39017;DHT22;24784;45.582;5.276;2022-09-09T08:08:53;16.40;99.90
39017;DHT22;24784;45.582;5.276;2022-09-09T08:11:21;16.60;99.90
39017;DHT22;24784;45.582;5.276;2022-09-09T08:13:49;17.10;99.90
39017;DHT22;24784;45.582;5.276;2022-09-09T08:16:18;17.40;99.90
39017;DHT22;24784;45.582;5.276;2022-09-09T08:18:44;17.80;99.90
39017;DHT22;24784;45.582;5.276;2022-09-09T08:21:19;17.80;99.90
39017;DHT22;24784;45.582;5.276;2022-09-09T08:23:51;17.70;99.90
39017;DHT22;24784;45.582;5.276;2022-09-09T08:26:27;17.40;99.90
39017;DHT22;24784;45.582;5.276;2022-09-09T08:28:56;17.40;99.90
39017;DHT22;24784;45.582;5.276;2022-09-09T08:31:33;17.50;99.90
39017;DHT22;24784;45.582;5.276;2022-09-09T08:34:01;17.50;99.90
39017;DHT22;24784;45.582;5.276;2022-09-09T08:36:29;17.60;99.90
39017;DHT22;24784;45.582;5.276;2022-09-09T08:38:57;17.60;99.90
39017;DHT22;24784;45.582;5.276;2022-09-09T08:50:16;18.30;99.90
39017;DHT22;24784;45.582;5.276;2022-09-09T08:56:01;18.10;99.90
39017;DHT22;24784;45.582;5.276;2022-09-09T08:58:29;18.40;99.90
39017;DHT22;24784;45.582;5.276;2022-09-09T09:03:38;19.10;99.90
39017;DHT22;24784;45.582;5.276;2022-09-09T09:09:39;19.30;99.90
39017;DHT22;24784;45.582;5.276;2022-09-09T09:12:19;19.20;99.90
39017;DHT22;24784;45.582;5.276;2022-09-09T09:14:47;19.00;99.90
39017;DHT22;24784;45.582;5.276;2022-09-09T09:19:41;19.90;99.90
39017;DHT22;24784;45.582;5.276;2022-09-09T09:25:21;20.50;99.90
39017;DHT22;24784;45.582;5.276;2022-09-09T09:30:39;19.90;99.90
39017;DHT22;24784;45.582;5.276;2022-09-09T09:35:52;20.70;99.90
39017;DHT22;24784;45.582;5.276;2022-09-09T09:38:26;21.20;99.90
39017;DHT22;24784;45.582;5.276;2022-09-09T09:43:31;21.10;97.50
39017;DHT22;24784;45.582;5.276;2022-09-09T09:45:57;21.40;98.10
39017;DHT22;24784;45.582;5.276;2022-09-09T09:48:25;21.50;96.90
39017;DHT22;24784;45.582;5.276;2022-09-09T09:50:56;21.70;95.30
39017;DHT22;24784;45.582;5.276;2022-09-09T09:55:58;21.90;94.10
39017;DHT22;24784;45.582;5.276;2022-09-09T09:58:32;21.80;91.90
39017;DHT22;24784;45.582;5.276;2022-09-09T10:01:00;21.50;96.20
39017;DHT22;24784;45.582;5.276;2022-09-09T10:03:29;21.60;96.50
39017;DHT22;24784;45.582;5.276;2022-09-09T10:05:55;21.90;93.90
39017;DHT22;24784;45.582;5.276;2022-09-09T10:08:25;21.90;93.30
39017;DHT22;24784;45.582;5.276;2022-09-09T10:19:32;22.50;92.40
39017;DHT22;24784;45.582;5.276;2022-09-09T10:22:17;22.60;92.10
39017;DHT22;24784;45.582;5.276;2022-09-09T10:27:43;22.40;90.30
39017;DHT22;24784;45.582;5.276;2022-09-09T10:30:26;22.50;88.30
39017;DHT22;24784;45.582;5.276;2022-09-09T10:33:12;22.50;90.00
39017;DHT22;24784;45.582;5.276;2022-09-09T10:41:22;22.00;85.90
39017;DHT22;24784;45.582;5.276;2022-09-09T10:49:39;22.10;87.80
39017;DHT22;24784;45.582;5.276;2022-09-09T10:52:31;22.20;86.40
39017;DHT22;24784;45.582;5.276;2022-09-09T10:55:12;22.30;86.00
39017;DHT22;24784;45.582;5.276;2022-09-09T10:57:40;22.30;86.80
39017;DHT22;24784;45.582;5.276;2022-09-09T11:00:19;22.30;88.10
39017;DHT22;24784;45.582;5.276;2022-09-09T11:02:52;22.30;85.10
39017;DHT22;24784;45.582;5.276;2022-09-09T11:05:57;22.30;84.60
39017;DHT22;24784;45.582;5.276;2022-09-09T11:08:30;22.50;83.00
39017;DHT22;24784;45.582;5.276;2022-09-09T11:16:40;22.60;82.60
39017;DHT22;24784;45.582;5.276;2022-09-09T11:21:54;22.50;84.60
39017;DHT22;24784;45.582;5.276;2022-09-09T11:24:28;22.90;84.60
39017;DHT22;24784;45.582;5.276;2022-09-09T11:42:27;23.20;74.00
39017;DHT22;24784;45.582;5.276;2022-09-09T11:44:53;23.40;75.30
39017;DHT22;24784;45.582;5.276;2022-09-09T11:47:28;23.50;75.90
39017;DHT22;24784;45.582;5.276;2022-09-09T11:50:06;23.20;75.70
39017;DHT22;24784;45.582;5.276;2022-09-09T11:52:40;23.00;75.40
39017;DHT22;24784;45.582;5.276;2022-09-09T11:55:30;22.90;78.60
39017;DHT22;24784;45.582;5.276;2022-09-09T11:58:01;22.60;77.40
39017;DHT22;24784;45.582;5.276;2022-09-09T12:00:36;22.40;77.40
39017;DHT22;24784;45.582;5.276;2022-09-09T12:03:03;22.80;79.90
39017;DHT22;24784;45.582;5.276;2022-09-09T12:05:44;22.80;78.90
39017;DHT22;24784;45.582;5.276;2022-09-09T12:08:16;23.10;75.90
39017;DHT22;24784;45.582;5.276;2022-09-09T12:10:56;23.60;75.80
39017;DHT22;24784;45.582;5.276;2022-09-09T12:13:24;23.70;74.10
39017;DHT22;24784;45.582;5.276;2022-09-09T12:15:56;23.30;74.20
39017;DHT22;24784;45.582;5.276;2022-09-09T12:18:24;23.00;75.20
39017;DHT22;24784;45.582;5.276;2022-09-09T12:21:41;23.30;74.80
39017;DHT22;24784;45.582;5.276;2022-09-09T12:23:52;23.80;73.40
39017;DHT22;24784;45.582;5.276;2022-09-09T12:26:24;23.70;73.80
39017;DHT22;24784;45.582;5.276;2022-09-09T12:31:39;23.40;71.80
39017;DHT22;24784;45.582;5.276;2022-09-09T12:36:40;23.70;69.90
39017;DHT22;24784;45.582;5.276;2022-09-09T12:39:17;23.80;71.40
39017;DHT22;24784;45.582;5.276;2022-09-09T12:41:52;23.80;69.50
39017;DHT22;24784;45.582;5.276;2022-09-09T12:44:25;23.70;70.70
39017;DHT22;24784;45.582;5.276;2022-09-09T12:46:54;24.20;71.50
39017;DHT22;24784;45.582;5.276;2022-09-09T12:49:25;24.50;69.60
39017;DHT22;24784;45.582;5.276;2022-09-09T12:51:52;24.60;68.50
39017;DHT22;24784;45.582;5.276;2022-09-09T12:54:19;24.60;68.20
39017;DHT22;24784;45.582;5.276;2022-09-09T12:56:46;24.60;67.60
39017;DHT22;24784;45.582;5.276;2022-09-09T12:59:41;24.70;71.00
39017;DHT22;24784;45.582;5.276;2022-09-09T13:04:45;25.80;66.70
39017;DHT22;24784;45.582;5.276;2022-09-09T13:07:13;26.10;67.00
39017;DHT22;24784;45.582;5.276;2022-09-09T13:09:39;25.80;66.30
39017;DHT22;24784;45.582;5.276;2022-09-09T13:12:11;25.60;66.90
39017;DHT22;24784;45.582;5.276;2022-09-09T13:14:38;25.40;68.90
39017;DHT22;24784;45.582;5.276;2022-09-09T13:17:06;25.20;68.20
39017;DHT22;24784;45.582;5.276;2022-09-09T13:19:35;25.50;66.90
39017;DHT22;24784;45.582;5.276;2022-09-09T13:22:28;25.80;66.40
39017;DHT22;24784;45.582;5.276;2022-09-09T13:25:16;25.30;69.00
39017;DHT22;24784;45.582;5.276;2022-09-09T13:27:58;25.20;67.40
39017;DHT22;24784;45.582;5.276;2022-09-09T13:30:30;24.60;68.50
39017;DHT22;24784;45.582;5.276;2022-09-09T13:33:21;24.50;69.50
39017;DHT22;24784;45.582;5.276;2022-09-09T13:38:16;24.60;69.60
39017;DHT22;24784;45.582;5.276;2022-09-09T13:40:56;24.30;69.10
39017;DHT22;24784;45.582;5.276;2022-09-09T13:43:24;24.60;67.00
39017;DHT22;24784;45.582;5.276;2022-09-09T13:45:59;25.00;67.20
39017;DHT22;24784;45.582;5.276;2022-09-09T13:48:26;24.50;65.00
39017;DHT22;24784;45.582;5.276;2022-09-09T13:50:58;24.60;66.20
39017;DHT22;24784;45.582;5.276;2022-09-09T13:53:24;24.60;68.90
39017;DHT22;24784;45.582;5.276;2022-09-09T13:55:50;24.40;70.30
39017;DHT22;24784;45.582;5.276;2022-09-09T13:58:17;24.50;67.40
39017;DHT22;24784;45.582;5.276;2022-09-09T14:00:48;24.40;70.10
39017;DHT22;24784;45.582;5.276;2022-09-09T14:03:15;24.50;69.10
39017;DHT22;24784;45.582;5.276;2022-09-09T14:05:40;24.50;68.20
39017;DHT22;24784;45.582;5.276;2022-09-09T14:08:12;24.30;68.10
39017;DHT22;24784;45.582;5.276;2022-09-09T14:10:41;23.90;69.00
39017;DHT22;24784;45.582;5.276;2022-09-09T14:13:07;23.80;68.20
39017;DHT22;24784;45.582;5.276;2022-09-09T14:15:33;23.50;69.00
39017;DHT22;24784;45.582;5.276;2022-09-09T14:17:59;23.60;69.00
39017;DHT22;24784;45.582;5.276;2022-09-09T14:20:25;23.90;71.50
39017;DHT22;24784;45.582;5.276;2022-09-09T14:22:50;24.00;70.20
39017;DHT22;24784;45.582;5.276;2022-09-09T14:25:16;24.00;70.10
39017;DHT22;24784;45.582;5.276;2022-09-09T14:27:42;23.60;68.10
39017;DHT22;24784;45.582;5.276;2022-09-09T14:30:09;23.70;70.70
39017;DHT22;24784;45.582;5.276;2022-09-09T14:32:35;23.60;71.10
39017;DHT22;24784;45.582;5.276;2022-09-09T14:35:00;23.50;71.70
39017;DHT22;24784;45.582;5.276;2022-09-09T14:37:27;23.50;73.30
39017;DHT22;24784;45.582;5.276;2022-09-09T14:39:53;23.50;75.80
39017;DHT22;24784;45.582;5.276;2022-09-09T14:42:20;23.20;76.30
39017;DHT22;24784;45.582;5.276;2022-09-09T14:44:47;23.20;75.60
39017;DHT22;24784;45.582;5.276;2022-09-09T14:47:13;23.10;75.90
39017;DHT22;24784;45.582;5.276;2022-09-09T14:49:39;23.30;77.40
39017;DHT22;24784;45.582;5.276;2022-09-09T14:52:04;23.40;74.60
39017;DHT22;24784;45.582;5.276;2022-09-09T14:54:31;23.40;69.20
39017;DHT22;24784;45.582;5.276;2022-09-09T14:56:57;23.40;67.70
39017;DHT22;24784;45.582;5.276;2022-09-09T14:59:23;23.10;69.70
39017;DHT22;24784;45.582;5.276;2022-09-09T15:01:49;23.10;71.00
39017;DHT22;24784;45.582;5.276;2022-09-09T15:04:15;23.00;74.30
39017;DHT22;24784;45.582;5.276;2022-09-09T15:06:42;23.10;75.30
39017;DHT22;24784;45.582;5.276;2022-09-09T15:09:10;23.10;78.20
39017;DHT22;24784;45.582;5.276;2022-09-09T15:11:37;22.90;77.80
39017;DHT22;24784;45.582;5.276;2022-09-09T15:14:04;22.70;77.50
39017;DHT22;24784;45.582;5.276;2022-09-09T15:16:30;22.60;77.50
39017;DHT22;24784;45.582;5.276;2022-09-09T15:18:59;22.90;79.20
39017;DHT22;24784;45.582;5.276;2022-09-09T15:21:33;23.20;74.70
39017;DHT22;24784;45.582;5.276;2022-09-09T15:24:00;23.50;71.40
39017;DHT22;24784;45.582;5.276;2022-09-09T15:26:26;23.70;68.60
39017;DHT22;24784;45.582;5.276;2022-09-09T15:28:52;23.50;68.90
39017;DHT22;24784;45.582;5.276;2022-09-09T15:31:22;23.30;69.70
39017;DHT22;24784;45.582;5.276;2022-09-09T15:33:52;23.30;70.20
39017;DHT22;24784;45.582;5.276;2022-09-09T15:36:25;23.20;74.60
39017;DHT22;24784;45.582;5.276;2022-09-09T15:38:52;23.00;78.50
39017;DHT22;24784;45.582;5.276;2022-09-09T15:41:19;22.80;81.20
39017;DHT22;24784;45.582;5.276;2022-09-09T15:43:49;22.70;79.80
39017;DHT22;24784;45.582;5.276;2022-09-09T15:46:34;22.70;78.90
39017;DHT22;24784;45.582;5.276;2022-09-09T15:49:08;22.90;77.90
39017;DHT22;24784;45.582;5.276;2022-09-09T15:51:36;22.90;76.70
39017;DHT22;24784;45.582;5.276;2022-09-09T15:54:07;22.90;75.70
39017;DHT22;24784;45.582;5.276;2022-09-09T15:56:34;23.00;74.80
39017;DHT22;24784;45.582;5.276;2022-09-09T15:59:00;23.30;73.10
39017;DHT22;24784;45.582;5.276;2022-09-09T16:01:29;23.20;71.40
39017;DHT22;24784;45.582;5.276;2022-09-09T16:03:57;23.40;71.70
39017;DHT22;24784;45.582;5.276;2022-09-09T16:06:24;23.30;70.40
39017;DHT22;24784;45.582;5.276;2022-09-09T16:08:52;23.30;70.80
39017;DHT22;24784;45.582;5.276;2022-09-09T16:11:26;23.20;71.50
39017;DHT22;24784;45.582;5.276;2022-09-09T16:13:53;23.20;71.70
39017;DHT22;24784;45.582;5.276;2022-09-09T16:16:21;23.20;71.30
39017;DHT22;24784;45.582;5.276;2022-09-09T16:18:50;23.00;71.90
39017;DHT22;24784;45.582;5.276;2022-09-09T16:23:56;22.80;76.80
39017;DHT22;24784;45.582;5.276;2022-09-09T16:26:22;22.80;80.00
39017;DHT22;24784;45.582;5.276;2022-09-09T16:28:48;22.80;80.70
39017;DHT22;24784;45.582;5.276;2022-09-09T16:31:17;22.60;81.80
39017;DHT22;24784;45.582;5.276;2022-09-09T16:33:44;22.50;80.20
39017;DHT22;24784;45.582;5.276;2022-09-09T16:36:19;22.50;80.70
39017;DHT22;24784;45.582;5.276;2022-09-09T16:38:45;22.40;82.10
39017;DHT22;24784;45.582;5.276;2022-09-09T16:41:12;22.40;81.00
39017;DHT22;24784;45.582;5.276;2022-09-09T16:43:38;22.40;85.10
39017;DHT22;24784;45.582;5.276;2022-09-09T16:46:16;22.30;84.40
39017;DHT22;24784;45.582;5.276;2022-09-09T16:48:44;22.20;86.10
39017;DHT22;24784;45.582;5.276;2022-09-09T16:51:20;22.10;86.60
39017;DHT22;24784;45.582;5.276;2022-09-09T16:53:47;22.10;87.30
39017;DHT22;24784;45.582;5.276;2022-09-09T16:56:18;22.10;87.40
39017;DHT22;24784;45.582;5.276;2022-09-09T16:58:49;21.90;87.60
39017;DHT22;24784;45.582;5.276;2022-09-09T17:01:15;21.80;86.50
39017;DHT22;24784;45.582;5.276;2022-09-09T17:03:41;21.70;87.90
39017;DHT22;24784;45.582;5.276;2022-09-09T17:06:14;21.60;85.50
39017;DHT22;24784;45.582;5.276;2022-09-09T17:08:41;21.70;89.00
39017;DHT22;24784;45.582;5.276;2022-09-09T17:11:18;21.80;88.00
39017;DHT22;24784;45.582;5.276;2022-09-09T17:13:45;21.80;89.40
39017;DHT22;24784;45.582;5.276;2022-09-09T17:16:13;21.80;90.60
39017;DHT22;24784;45.582;5.276;2022-09-09T17:21:17;21.50;90.70
39017;DHT22;24784;45.582;5.276;2022-09-09T17:23:44;21.50;90.90
39017;DHT22;24784;45.582;5.276;2022-09-09T17:26:14;21.40;91.00
39017;DHT22;24784;45.582;5.276;2022-09-09T17:28:41;21.30;88.60
39017;DHT22;24784;45.582;5.276;2022-09-09T17:31:08;21.40;88.80
39017;DHT22;24784;45.582;5.276;2022-09-09T17:33:39;21.30;87.60
39017;DHT22;24784;45.582;5.276;2022-09-09T17:36:14;21.30;87.20
39017;DHT22;24784;45.582;5.276;2022-09-09T17:38:41;21.30;86.90
39017;DHT22;24784;45.582;5.276;2022-09-09T17:41:14;21.30;88.10
39017;DHT22;24784;45.582;5.276;2022-09-09T17:43:40;21.20;87.80
39017;DHT22;24784;45.582;5.276;2022-09-09T17:46:13;21.20;87.00
39017;DHT22;24784;45.582;5.276;2022-09-09T17:48:40;21.10;88.00
39017;DHT22;24784;45.582;5.276;2022-09-09T17:51:09;21.10;88.60
39017;DHT22;24784;45.582;5.276;2022-09-09T17:53:39;21.00;88.80
39017;DHT22;24784;45.582;5.276;2022-09-09T17:56:07;21.00;89.70
39017;DHT22;24784;45.582;5.276;2022-09-09T17:58:34;20.90;91.20
39017;DHT22;24784;45.582;5.276;2022-09-09T18:01:24;20.80;90.00
39017;DHT22;24784;45.582;5.276;2022-09-09T18:03:53;20.70;91.00
39017;DHT22;24784;45.582;5.276;2022-09-09T18:06:24;20.70;90.70
39017;DHT22;24784;45.582;5.276;2022-09-09T18:08:57;20.60;90.70
39017;DHT22;24784;45.582;5.276;2022-09-09T18:11:26;20.70;90.80